createdAt,value
2017-09-23T00:00:32.293Z,13.40
2017-09-23T00:03:00.584Z,13.40
2017-09-23T00:05:28.836Z,13.40
2017-09-23T00:07:57.093Z,13.30
2017-09-23T00:10:25.350Z,13.30
2017-09-23T00:12:53.605Z,13.30
2017-09-23T00:15:21.866Z,13.40
2017-09-23T00:17:50.210Z,13.50
2017-09-23T00:20:18.474Z,13.50
2017-09-23T00:22:46.743Z,13.60
2017-09-23T00:25:14.983Z,13.60
2017-09-23T00:27:43.280Z,13.50
2017-09-23T00:30:11.852Z,13.40
2017-09-23T00:32:40.870Z,13.50
2017-09-23T00:35:09.169Z,13.50
2017-09-23T00:37:37.449Z,13.40
2017-09-23T00:40:05.702Z,13.50
2017-09-23T00:42:33.972Z,13.60
2017-09-23T00:45:02.235Z,13.50
2017-09-23T00:47:30.462Z,13.40
2017-09-23T00:49:58.739Z,13.30
2017-09-23T00:52:26.994Z,13.30
2017-09-23T00:54:55.238Z,13.30
2017-09-23T00:57:23.527Z,13.40
2017-09-23T00:59:51.769Z,13.30
2017-09-23T01:02:20.825Z,13.30
2017-09-23T01:04:49.880Z,13.30
2017-09-23T01:07:18.195Z,13.30
2017-09-23T01:09:46.447Z,13.30
2017-09-23T01:12:14.722Z,13.30
2017-09-23T01:14:42.983Z,13.30
2017-09-23T01:17:11.987Z,13.50
2017-09-23T01:19:40.238Z,13.50
2017-09-23T01:22:09.251Z,13.60
2017-09-23T01:24:37.526Z,13.60
2017-09-23T01:27:05.814Z,13.50
2017-09-23T01:29:34.148Z,13.40
2017-09-23T01:32:02.434Z,13.40
2017-09-23T01:34:30.670Z,13.40
2017-09-23T01:36:58.936Z,13.40
2017-09-23T01:39:27.176Z,13.40
2017-09-23T01:41:56.234Z,13.60
2017-09-23T01:44:24.522Z,13.60
2017-09-23T01:46:52.743Z,13.70
2017-09-23T01:49:21.019Z,13.60
2017-09-23T01:51:49.291Z,13.60
2017-09-23T01:54:18.332Z,13.80
2017-09-23T01:56:46.593Z,13.80
2017-09-23T01:59:14.845Z,13.90
2017-09-23T02:01:43.173Z,13.70
2017-09-23T02:04:11.446Z,13.70
2017-09-23T02:06:39.727Z,13.70
2017-09-23T02:09:07.963Z,13.70
2017-09-23T02:11:36.285Z,13.70
2017-09-23T02:14:04.695Z,13.60
2017-09-23T02:16:32.931Z,13.70
2017-09-23T02:19:01.197Z,13.70
2017-09-23T02:21:29.458Z,13.60
2017-09-23T02:23:57.742Z,13.60
2017-09-23T02:26:25.978Z,13.70
2017-09-23T02:28:55.005Z,13.50
2017-09-23T02:31:23.259Z,13.50
2017-09-23T02:33:52.302Z,13.70
2017-09-23T02:36:20.599Z,13.60
2017-09-23T02:38:48.829Z,13.70
2017-09-23T02:41:17.105Z,13.80
2017-09-23T02:43:46.126Z,13.90
2017-09-23T02:46:15.123Z,13.80
2017-09-23T02:48:43.394Z,13.80
2017-09-23T02:51:11.654Z,13.80
2017-09-23T02:53:39.911Z,13.80
2017-09-23T02:56:08.945Z,13.70
2017-09-23T02:58:37.248Z,13.70
2017-09-23T03:01:05.537Z,13.60
2017-09-23T03:03:33.795Z,13.60
2017-09-23T03:06:02.098Z,13.70
2017-09-23T03:08:30.330Z,13.70
2017-09-23T03:10:58.584Z,13.70
2017-09-23T03:13:26.834Z,13.80
2017-09-23T03:15:55.105Z,13.70
2017-09-23T03:18:24.121Z,13.70
2017-09-23T03:20:53.142Z,13.80
2017-09-23T03:23:21.425Z,13.80
2017-09-23T03:25:49.661Z,13.80
2017-09-23T03:28:17.933Z,13.90
2017-09-23T03:30:46.986Z,13.90
2017-09-23T03:33:15.245Z,13.90
2017-09-23T03:35:43.508Z,13.90
2017-09-23T03:38:11.779Z,13.80
2017-09-23T03:40:40.794Z,13.70
2017-09-23T03:43:09.056Z,13.70
2017-09-23T03:45:38.051Z,13.60
2017-09-23T03:48:06.324Z,13.60
2017-09-23T03:50:35.338Z,13.60
2017-09-23T03:53:04.390Z,13.50
2017-09-23T03:55:32.644Z,13.50
2017-09-23T03:58:00.926Z,13.60
2017-09-23T04:00:29.197Z,13.50
2017-09-23T04:02:57.466Z,13.50
2017-09-23T04:05:25.726Z,13.50
2017-09-23T04:07:54.010Z,13.50
2017-09-23T04:10:22.250Z,13.50
2017-09-23T04:12:51.290Z,13.80
2017-09-23T04:15:19.609Z,13.80
2017-09-23T04:17:47.816Z,13.90
2017-09-23T04:20:16.089Z,13.80
2017-09-23T04:22:44.383Z,13.80
2017-09-23T04:25:12.654Z,13.90
2017-09-23T04:27:40.919Z,14.00
2017-09-23T04:30:09.174Z,14.00
2017-09-23T04:32:38.212Z,14.10
2017-09-23T04:35:06.446Z,14.00
2017-09-23T04:37:35.493Z,13.90
2017-09-23T04:40:03.723Z,13.90
2017-09-23T04:42:32.012Z,14.00
2017-09-23T04:45:00.286Z,13.90
2017-09-23T04:47:28.568Z,14.00
2017-09-23T04:49:57.594Z,14.00
2017-09-23T04:52:25.848Z,14.00
2017-09-23T04:54:54.124Z,14.00
2017-09-23T04:57:23.523Z,13.70
2017-09-23T04:59:51.782Z,13.70
2017-09-23T05:02:21.285Z,13.60
2017-09-23T05:04:50.306Z,13.70
2017-09-23T05:07:18.565Z,13.60
2017-09-23T05:09:47.610Z,13.80
2017-09-23T05:12:15.858Z,13.80
2017-09-23T05:14:44.115Z,13.80
2017-09-23T05:17:12.394Z,13.70
2017-09-23T05:19:41.427Z,13.80
2017-09-23T05:22:09.685Z,13.80
2017-09-23T05:24:37.941Z,13.80
2017-09-23T05:27:06.960Z,13.80
2017-09-23T05:29:35.293Z,13.80
2017-09-23T05:32:03.524Z,13.90
2017-09-23T05:34:31.781Z,13.90
2017-09-23T05:37:00.811Z,14.00
2017-09-23T05:39:29.104Z,14.00
2017-09-23T05:41:57.345Z,14.00
2017-09-23T05:44:25.616Z,14.00
2017-09-23T05:46:53.871Z,14.00
2017-09-23T05:49:22.875Z,14.00
2017-09-23T05:51:51.138Z,14.00
2017-09-23T05:54:20.175Z,14.10
2017-09-23T05:56:48.464Z,14.10
2017-09-23T05:59:16.689Z,14.20
2017-09-23T06:01:45.722Z,14.10
2017-09-23T06:04:13.974Z,14.10
2017-09-23T06:06:42.235Z,14.20
2017-09-23T06:09:11.269Z,14.40
2017-09-23T06:11:39.526Z,14.40
2017-09-23T06:14:07.794Z,14.30
2017-09-23T06:16:36.825Z,14.30
2017-09-23T06:19:05.105Z,14.30
2017-09-23T06:21:33.382Z,14.30
2017-09-23T06:24:01.652Z,14.40
2017-09-23T06:26:29.912Z,14.50
2017-09-23T06:28:58.264Z,14.60
2017-09-23T06:31:26.526Z,14.60
2017-09-23T06:33:54.793Z,14.60
2017-09-23T06:36:23.055Z,14.70
2017-09-23T06:38:51.318Z,14.70
2017-09-23T06:41:19.605Z,14.80
2017-09-23T06:43:47.842Z,14.70
2017-09-23T06:46:16.949Z,14.70
2017-09-23T06:48:45.230Z,14.70
2017-09-23T06:51:13.531Z,14.70
2017-09-23T06:53:41.820Z,14.70
2017-09-23T06:56:10.099Z,14.70
2017-09-23T06:58:38.417Z,14.80
2017-09-23T07:01:06.638Z,14.80
2017-09-23T07:03:34.956Z,14.80
2017-09-23T07:06:03.199Z,14.80
2017-09-23T07:08:31.491Z,14.70
2017-09-23T07:10:59.767Z,14.80
2017-09-23T07:13:28.026Z,14.90
2017-09-23T07:15:56.282Z,15.00
2017-09-23T07:18:24.564Z,15.00
2017-09-23T07:20:52.813Z,15.10
2017-09-23T07:23:21.102Z,15.10
2017-09-23T07:25:50.174Z,15.00
2017-09-23T07:28:19.240Z,15.10
2017-09-23T07:30:47.532Z,15.10
2017-09-23T07:33:15.782Z,15.10
2017-09-23T07:35:44.082Z,15.10
2017-09-23T07:38:12.331Z,15.10
2017-09-23T07:40:40.579Z,15.10
2017-09-23T07:43:09.670Z,15.10
2017-09-23T07:45:38.738Z,15.10
2017-09-23T07:48:07.013Z,15.00
2017-09-23T07:50:35.327Z,15.00
2017-09-23T07:53:04.921Z,14.90
2017-09-23T07:55:33.178Z,14.90
2017-09-23T07:58:01.504Z,14.90
2017-09-23T08:00:29.884Z,15.00
2017-09-23T08:02:58.205Z,15.20
2017-09-23T08:05:26.484Z,15.10
2017-09-23T08:07:54.762Z,15.20
2017-09-23T08:10:23.061Z,15.20
2017-09-23T08:12:52.080Z,15.30
2017-09-23T08:15:20.337Z,15.30
2017-09-23T08:17:49.395Z,15.30
2017-09-23T08:20:17.712Z,15.30
2017-09-23T08:22:46.741Z,15.40
2017-09-23T08:25:14.983Z,15.40
2017-09-23T08:27:44.127Z,15.20
2017-09-23T08:30:12.415Z,15.20
2017-09-23T08:32:40.657Z,15.10
2017-09-23T08:35:08.963Z,15.00
2017-09-23T08:37:37.244Z,15.00
2017-09-23T08:40:05.531Z,15.00
2017-09-23T08:42:33.853Z,15.00
2017-09-23T08:45:02.128Z,14.90
2017-09-23T08:47:31.134Z,14.90
2017-09-23T08:49:59.387Z,14.90
2017-09-23T08:52:28.454Z,15.00
2017-09-23T08:54:56.697Z,15.00
2017-09-23T08:57:25.842Z,15.10
2017-09-23T08:59:54.860Z,15.20
2017-09-23T09:02:23.874Z,15.40
2017-09-23T09:04:52.144Z,15.40
2017-09-23T09:07:21.150Z,15.50
2017-09-23T09:09:49.515Z,15.50
2017-09-23T09:12:17.804Z,15.60
2017-09-23T09:14:46.084Z,15.80
2017-09-23T09:17:14.377Z,15.80
2017-09-23T09:19:42.678Z,16.00
2017-09-23T09:22:10.972Z,15.70
2017-09-23T09:24:39.265Z,15.80
2017-09-23T09:27:08.358Z,15.90
2017-09-23T09:29:36.633Z,16.00
2017-09-23T09:32:04.894Z,15.80
2017-09-23T09:34:33.203Z,15.80
2017-09-23T09:37:02.223Z,16.00
2017-09-23T09:39:30.561Z,16.00
2017-09-23T09:41:58.806Z,16.10
2017-09-23T09:44:27.102Z,16.00
2017-09-23T09:46:55.504Z,15.90
2017-09-23T09:49:23.778Z,15.50
2017-09-23T09:51:52.267Z,15.60
2017-09-23T09:54:20.534Z,15.50
2017-09-23T09:56:48.815Z,15.60
2017-09-23T09:59:17.091Z,15.80
2017-09-23T10:01:45.394Z,15.90
2017-09-23T10:04:14.433Z,16.10
2017-09-23T10:06:42.725Z,16.10
2017-09-23T10:09:10.982Z,16.10
2017-09-23T10:11:39.249Z,16.20
2017-09-23T10:14:07.540Z,16.30
2017-09-23T10:16:35.826Z,16.20
2017-09-23T10:19:04.268Z,16.30
2017-09-23T10:21:32.606Z,16.50
2017-09-23T10:24:00.872Z,16.90
2017-09-23T10:26:29.175Z,16.90
2017-09-23T10:28:57.630Z,17.20
2017-09-23T10:31:25.896Z,17.30
2017-09-23T10:33:54.193Z,17.10
2017-09-23T10:36:22.526Z,16.70
2017-09-23T10:38:50.870Z,16.40
2017-09-23T10:41:19.175Z,16.40
2017-09-23T10:43:47.494Z,16.20
2017-09-23T10:46:15.783Z,16.30
2017-09-23T10:48:44.063Z,16.20
2017-09-23T10:51:12.345Z,16.30
2017-09-23T10:53:40.622Z,16.50
2017-09-23T10:56:08.888Z,16.70
2017-09-23T10:58:37.620Z,16.80
2017-09-23T11:01:06.693Z,16.60
2017-09-23T11:03:34.917Z,16.60
2017-09-23T11:06:03.208Z,16.70
2017-09-23T11:08:31.491Z,16.80
2017-09-23T11:10:59.741Z,17.00
2017-09-23T11:13:28.179Z,16.80
2017-09-23T11:15:56.424Z,16.80
2017-09-23T11:18:24.695Z,17.00
2017-09-23T11:20:52.965Z,17.10
2017-09-23T11:23:21.225Z,16.90
2017-09-23T11:25:49.493Z,16.90
2017-09-23T11:28:17.804Z,17.20
2017-09-23T11:30:46.071Z,17.20
2017-09-23T11:33:14.367Z,17.40
2017-09-23T11:35:42.625Z,17.40
2017-09-23T11:38:10.896Z,17.40
2017-09-23T11:40:39.142Z,17.40
2017-09-23T11:43:08.191Z,17.40
2017-09-23T11:45:36.497Z,17.40
2017-09-23T11:48:05.532Z,17.50
2017-09-23T11:50:33.824Z,17.40
2017-09-23T11:53:02.823Z,17.30
2017-09-23T11:55:31.108Z,17.30
2017-09-23T11:57:59.576Z,17.30
2017-09-23T12:00:28.837Z,17.00
2017-09-23T12:02:57.919Z,16.90
2017-09-23T12:05:26.169Z,16.80
2017-09-23T12:07:55.672Z,16.80
2017-09-23T12:10:24.024Z,16.70
2017-09-23T12:12:52.271Z,16.60
2017-09-23T12:15:21.334Z,16.70
2017-09-23T12:17:49.688Z,16.70
2017-09-23T12:20:17.966Z,16.70
2017-09-23T12:22:46.242Z,16.80
2017-09-23T12:25:14.526Z,16.90
2017-09-23T12:27:42.792Z,16.80
2017-09-23T12:30:11.075Z,16.70
2017-09-23T12:32:39.340Z,16.80
2017-09-23T12:35:08.374Z,16.70
2017-09-23T12:37:36.662Z,16.80
2017-09-23T12:40:04.950Z,16.90
2017-09-23T12:42:33.995Z,17.10
2017-09-23T12:45:02.314Z,17.10
2017-09-23T12:47:30.593Z,17.20
2017-09-23T12:49:59.725Z,17.20
2017-09-23T12:52:28.764Z,17.50
2017-09-23T12:54:57.136Z,17.50
2017-09-23T12:57:25.417Z,17.50
2017-09-23T12:59:53.673Z,17.50
2017-09-23T13:02:21.976Z,17.60
2017-09-23T13:04:50.242Z,17.60
2017-09-23T13:07:18.484Z,17.90
2017-09-23T13:09:47.507Z,17.60
2017-09-23T13:12:15.780Z,17.60
2017-09-23T13:14:44.051Z,17.50
2017-09-23T13:17:12.351Z,17.60
2017-09-23T13:19:40.651Z,17.70
2017-09-23T13:22:08.958Z,17.30
2017-09-23T13:24:37.209Z,17.00
2017-09-23T13:27:05.551Z,17.20
2017-09-23T13:29:33.876Z,17.00
2017-09-23T13:32:02.927Z,16.90
2017-09-23T13:34:31.233Z,16.90
2017-09-23T13:36:59.504Z,17.10
2017-09-23T13:39:27.829Z,17.50
2017-09-23T13:41:56.075Z,17.80
2017-09-23T13:44:24.368Z,17.70
2017-09-23T13:46:53.429Z,16.90
2017-09-23T13:49:21.730Z,16.90
2017-09-23T13:51:50.018Z,16.80
2017-09-23T13:54:18.260Z,16.80
2017-09-23T13:56:46.524Z,16.80
2017-09-23T13:59:14.791Z,16.90
2017-09-23T14:01:43.140Z,17.00
2017-09-23T14:04:11.409Z,17.20
2017-09-23T14:06:39.705Z,17.30
2017-09-23T14:09:08.736Z,17.40
2017-09-23T14:11:37.011Z,17.40
2017-09-23T14:14:05.293Z,17.50
2017-09-23T14:16:33.582Z,17.50
2017-09-23T14:19:01.866Z,17.30
2017-09-23T14:21:30.141Z,17.30
2017-09-23T14:23:58.472Z,17.20
2017-09-23T14:26:27.479Z,17.10
2017-09-23T14:28:55.754Z,17.10
2017-09-23T14:31:24.043Z,16.80
2017-09-23T14:33:52.333Z,16.70
2017-09-23T14:36:20.619Z,16.70
2017-09-23T14:38:48.872Z,16.80
2017-09-23T14:41:17.129Z,16.60
2017-09-23T14:43:45.515Z,16.50
2017-09-23T14:46:13.783Z,16.40
2017-09-23T14:48:42.095Z,16.40
2017-09-23T14:51:10.394Z,16.60
2017-09-23T14:53:38.669Z,16.80
2017-09-23T14:56:06.936Z,16.90
2017-09-23T14:58:35.215Z,17.20
2017-09-23T15:01:03.527Z,17.40
2017-09-23T15:03:31.767Z,17.30
2017-09-23T15:06:00.164Z,17.10
2017-09-23T15:08:28.486Z,16.90
2017-09-23T15:10:56.769Z,16.90
2017-09-23T15:13:25.049Z,16.80
2017-09-23T15:15:53.306Z,16.90
2017-09-23T15:18:21.628Z,16.90
2017-09-23T15:20:49.931Z,16.90
2017-09-23T15:23:18.241Z,16.90
2017-09-23T15:25:46.503Z,17.00
2017-09-23T15:28:14.793Z,17.00
2017-09-23T15:30:43.878Z,17.10
2017-09-23T15:33:12.112Z,17.10
2017-09-23T15:35:40.434Z,17.10
2017-09-23T15:38:08.701Z,16.90
2017-09-23T15:40:37.007Z,16.80
2017-09-23T15:43:05.262Z,16.70
2017-09-23T15:45:34.352Z,16.80
2017-09-23T15:48:02.628Z,16.80
2017-09-23T15:50:30.904Z,16.80
2017-09-23T15:52:59.151Z,16.90
2017-09-23T15:55:27.434Z,16.90
2017-09-23T15:57:55.721Z,16.80
2017-09-23T16:00:24.014Z,16.80
2017-09-23T16:02:53.116Z,16.80
2017-09-23T16:05:21.419Z,16.80
2017-09-23T16:07:50.385Z,16.60
2017-09-23T16:10:18.668Z,16.60
2017-09-23T16:12:46.991Z,16.60
2017-09-23T16:15:16.021Z,16.70
2017-09-23T16:17:44.356Z,16.70
2017-09-23T16:20:12.638Z,16.80
2017-09-23T16:22:40.934Z,16.90
2017-09-23T16:25:09.248Z,17.00
2017-09-23T16:27:37.511Z,16.90
2017-09-23T16:30:05.795Z,16.70
2017-09-23T16:32:34.086Z,16.80
2017-09-23T16:35:02.713Z,16.80
2017-09-23T16:37:31.006Z,16.70
2017-09-23T16:39:59.289Z,16.70
2017-09-23T16:42:27.613Z,16.60
2017-09-23T16:44:56.683Z,16.50
2017-09-23T16:47:24.971Z,16.50
2017-09-23T16:49:53.259Z,16.60
2017-09-23T16:52:21.541Z,16.60
2017-09-23T16:54:50.839Z,16.50
2017-09-23T16:57:19.087Z,16.50
2017-09-23T16:59:47.585Z,16.50
2017-09-23T17:02:15.928Z,16.60
2017-09-23T17:04:44.568Z,16.50
2017-09-23T17:07:12.845Z,16.50
2017-09-23T17:09:41.222Z,16.50
2017-09-23T17:12:09.579Z,16.50
2017-09-23T17:14:37.857Z,16.40
2017-09-23T17:17:06.155Z,16.30
2017-09-23T17:19:34.452Z,16.30
2017-09-23T17:22:03.515Z,16.00
2017-09-23T17:24:31.838Z,15.90
2017-09-23T17:27:00.078Z,15.80
2017-09-23T17:29:29.173Z,15.70
2017-09-23T17:31:58.456Z,15.70
2017-09-23T17:34:26.753Z,15.70
2017-09-23T17:36:55.075Z,15.80
2017-09-23T17:39:23.367Z,15.60
2017-09-23T17:41:51.679Z,15.50
2017-09-23T17:44:20.077Z,15.50
2017-09-23T17:46:49.284Z,15.60
2017-09-23T17:49:17.740Z,15.50
2017-09-23T17:51:46.018Z,15.60
2017-09-23T17:54:14.323Z,15.70
2017-09-23T17:56:43.424Z,15.80
2017-09-23T17:59:11.743Z,15.70
2017-09-23T18:01:40.126Z,15.80
2017-09-23T18:04:08.454Z,15.80
2017-09-23T18:06:37.547Z,15.60
2017-09-23T18:09:05.790Z,15.60
2017-09-23T18:11:34.099Z,15.60
2017-09-23T18:14:02.473Z,15.50
2017-09-23T18:16:31.561Z,15.40
2017-09-23T18:18:59.815Z,15.40
2017-09-23T18:21:28.176Z,15.30
2017-09-23T18:23:56.446Z,15.30
2017-09-23T18:26:24.773Z,15.20
2017-09-23T18:28:53.064Z,15.20
2017-09-23T18:31:21.393Z,15.20
2017-09-23T18:33:49.815Z,15.20
2017-09-23T18:36:18.087Z,15.10
2017-09-23T18:38:46.365Z,15.20
2017-09-23T18:41:14.754Z,15.00
2017-09-23T18:43:43.510Z,14.90
2017-09-23T18:46:11.923Z,14.90
2017-09-23T18:48:40.234Z,15.00
2017-09-23T18:51:09.304Z,15.10
2017-09-23T18:53:47.523Z,15.00
2017-09-23T18:56:15.814Z,15.00
2017-09-23T18:58:44.086Z,14.90
2017-09-23T19:01:13.171Z,14.90
2017-09-23T19:03:42.272Z,14.80
2017-09-23T19:06:10.606Z,14.80
2017-09-23T19:08:50.190Z,14.80
2017-09-23T19:11:18.494Z,14.80
2017-09-23T19:13:46.838Z,14.90
2017-09-23T19:16:15.938Z,14.50
2017-09-23T19:18:44.228Z,14.50
2017-09-23T19:21:12.507Z,14.50
2017-09-23T19:23:40.821Z,14.60
2017-09-23T19:26:09.176Z,14.60
2017-09-23T19:28:37.657Z,14.60
2017-09-23T19:31:06.832Z,14.40
2017-09-23T19:33:35.130Z,14.40
2017-09-23T19:36:04.175Z,14.50
2017-09-23T19:38:32.456Z,14.50
2017-09-23T19:41:00.803Z,14.50
2017-09-23T19:43:29.342Z,14.50
2017-09-23T19:45:57.709Z,14.50
2017-09-23T19:48:26.082Z,14.50
2017-09-23T19:50:54.995Z,14.40
2017-09-23T19:53:23.292Z,14.30
2017-09-23T19:55:52.335Z,14.40
2017-09-23T19:58:20.685Z,14.30
2017-09-23T20:00:49.757Z,14.40
2017-09-23T20:03:18.382Z,14.30
2017-09-23T20:05:46.676Z,14.30
2017-09-23T20:08:15.828Z,14.10
2017-09-23T20:10:45.719Z,14.00
2017-09-23T20:13:14.027Z,14.00
2017-09-23T20:15:43.115Z,14.00
2017-09-23T20:18:12.117Z,14.10
2017-09-23T20:20:40.439Z,14.10
2017-09-23T20:23:08.743Z,14.10
2017-09-23T20:25:37.785Z,14.20
2017-09-23T20:28:06.080Z,14.20
2017-09-23T20:30:34.375Z,14.20
2017-09-23T20:33:03.574Z,14.10
2017-09-23T20:35:31.832Z,14.10
2017-09-23T20:38:00.230Z,14.10
2017-09-23T20:40:28.532Z,14.00
2017-09-23T20:42:57.614Z,13.90
2017-09-23T20:45:25.951Z,13.90
2017-09-23T20:47:54.222Z,13.80
2017-09-23T20:50:23.274Z,13.70
2017-09-23T20:52:51.542Z,13.70
2017-09-23T20:55:19.829Z,13.70
2017-09-23T20:57:48.118Z,13.80
2017-09-23T21:00:17.161Z,13.90
2017-09-23T21:02:45.444Z,14.00
2017-09-23T21:05:15.360Z,13.90
2017-09-23T21:07:43.679Z,13.90
2017-09-23T21:10:11.930Z,13.80
2017-09-23T21:12:40.217Z,13.80
2017-09-23T21:15:08.495Z,13.90
2017-09-23T21:17:36.755Z,13.90
2017-09-23T21:20:05.075Z,13.80
2017-09-23T21:22:33.324Z,13.60
2017-09-23T21:25:01.600Z,13.60
2017-09-23T21:27:29.852Z,13.60
2017-09-23T21:29:58.187Z,13.70
2017-09-23T21:32:27.240Z,13.60
2017-09-23T21:34:55.534Z,13.60
2017-09-23T21:37:23.821Z,13.70
2017-09-23T21:39:52.082Z,13.70
2017-09-23T21:42:20.353Z,13.70
2017-09-23T21:44:48.660Z,13.60
2017-09-23T21:47:17.776Z,13.40
2017-09-23T21:49:46.066Z,13.40
2017-09-23T21:52:14.333Z,13.30
2017-09-23T21:54:43.421Z,13.20
2017-09-23T21:57:12.829Z,13.10
2017-09-23T21:59:41.872Z,13.10
2017-09-23T22:02:10.151Z,13.10
2017-09-23T22:04:38.392Z,13.00
2017-09-23T22:07:06.700Z,13.10
2017-09-23T22:09:35.721Z,13.10
2017-09-23T22:12:03.961Z,13.10
2017-09-23T22:14:32.266Z,13.20
2017-09-23T22:17:00.672Z,13.20
2017-09-23T22:19:28.963Z,13.10
2017-09-23T22:21:57.997Z,12.90
2017-09-23T22:24:26.245Z,12.90
2017-09-23T22:26:54.575Z,12.90
2017-09-23T22:29:22.835Z,12.90
2017-09-23T22:31:51.084Z,12.90
2017-09-23T22:34:19.369Z,12.90
2017-09-23T22:36:47.670Z,12.90
2017-09-23T22:39:15.946Z,13.00
2017-09-23T22:41:44.219Z,13.10
2017-09-23T22:44:12.517Z,13.10
2017-09-23T22:46:40.776Z,13.00
2017-09-23T22:49:09.040Z,13.00
2017-09-23T22:51:37.294Z,13.00
2017-09-23T22:54:05.571Z,13.10
2017-09-23T22:56:33.871Z,13.20
2017-09-23T22:59:02.125Z,13.20
2017-09-23T23:01:31.208Z,13.20
2017-09-23T23:03:59.539Z,13.10
2017-09-23T23:06:27.795Z,13.10
2017-09-23T23:08:56.085Z,13.10
2017-09-23T23:11:24.351Z,13.10
2017-09-23T23:13:52.638Z,13.20
2017-09-23T23:16:20.918Z,13.20
2017-09-23T23:18:49.213Z,13.30
2017-09-23T23:21:17.543Z,13.40
2017-09-23T23:23:45.817Z,13.40
2017-09-23T23:26:14.847Z,13.30
2017-09-23T23:28:43.099Z,13.30
2017-09-23T23:31:11.457Z,13.40
2017-09-23T23:33:40.526Z,13.40
2017-09-23T23:36:08.815Z,13.40
2017-09-23T23:38:37.071Z,13.40
2017-09-23T23:41:05.350Z,13.30
2017-09-23T23:43:33.598Z,13.30
2017-09-23T23:46:01.844Z,13.40
2017-09-23T23:48:30.154Z,13.30
2017-09-23T23:50:58.406Z,13.40
2017-09-23T23:53:26.714Z,13.40
2017-09-23T23:55:54.978Z,13.50
2017-09-23T23:58:23.216Z,13.50
